KOUN/OUN METAR and TAF weather

Enter ICAO airport designator
Station Type Date Time Source
KOUN METAR 2019/06/26 05:35 UTC NOAA

KOUN 260535Z AUTO 17007KT 10SM CLR 24/21 A3001 RMK AO2 T02450210


Station Type Date Time Source
KOUN Decoded METAR 2019/06/26 05:35 UTC NOAA

Norman / Max Westheimer, OK, United States (KOUN) 35-13N 097-27W 357M
Jun 26, 2019 - 01:35 AM EDT / 2019.06.26 0535 UTC
Wind: from the S (170 degrees) at 8 MPH (7 KT):0
Visibility: 10 mile(s):0
Sky conditions: clear
Temperature: 76.1 F (24.5 C)
Dew Point: 69.8 F (21.0 C)
Relative Humidity: 80%
Pressure (altimeter): 30.01 in. Hg (1016 hPa)
ob: KOUN 260535Z AUTO 17007KT 10SM CLR 24/21 A3001 RMK AO2 T02450210
cycle: 5

Station Type Date Time Source
KOUN TAF 2019/06/26 06:22 UTC NOAA

TAF KOUN 260520Z 2606/2706 15009KT P6SM BKN250
FM261400 18013KT P6SM SCT040 SCT250
FM270000 16010KT P6SM FEW250

Example: see airport list